sensor_id;sensor_type;location;lat;lon;timestamp;P1;durP1;ratioP1;P2;durP2;ratioP2
39846;SDS011;25517;52.422;10.782;2023-03-08T00:00:42;10.20;;;6.75;;
39846;SDS011;25517;52.422;10.782;2023-03-08T00:03:11;11.50;;;6.53;;
39846;SDS011;25517;52.422;10.782;2023-03-08T00:05:38;12.60;;;7.13;;
39846;SDS011;25517;52.422;10.782;2023-03-08T00:08:03;12.85;;;7.18;;
39846;SDS011;25517;52.422;10.782;2023-03-08T00:10:30;16.30;;;8.18;;
39846;SDS011;25517;52.422;10.782;2023-03-08T00:12:55;15.18;;;8.23;;
39846;SDS011;25517;52.422;10.782;2023-03-08T00:15:21;12.93;;;7.53;;
39846;SDS011;25517;52.422;10.782;2023-03-08T00:17:47;14.13;;;8.95;;
39846;SDS011;25517;52.422;10.782;2023-03-08T00:20:12;13.18;;;8.20;;
39846;SDS011;25517;52.422;10.782;2023-03-08T00:22:39;13.85;;;7.45;;
39846;SDS011;25517;52.422;10.782;2023-03-08T00:25:06;12.57;;;7.82;;
39846;SDS011;25517;52.422;10.782;2023-03-08T00:27:32;12.35;;;7.30;;
39846;SDS011;25517;52.422;10.782;2023-03-08T00:29:59;14.90;;;7.85;;
39846;SDS011;25517;52.422;10.782;2023-03-08T00:32:25;11.27;;;7.50;;
39846;SDS011;25517;52.422;10.782;2023-03-08T00:34:51;12.65;;;7.80;;
39846;SDS011;25517;52.422;10.782;2023-03-08T00:37:17;13.10;;;7.85;;
39846;SDS011;25517;52.422;10.782;2023-03-08T00:39:42;14.65;;;9.20;;
39846;SDS011;25517;52.422;10.782;2023-03-08T00:42:08;16.00;;;9.13;;
39846;SDS011;25517;52.422;10.782;2023-03-08T00:44:34;18.02;;;9.15;;
39846;SDS011;25517;52.422;10.782;2023-03-08T00:47:00;13.57;;;9.45;;
39846;SDS011;25517;52.422;10.782;2023-03-08T00:49:26;19.60;;;9.38;;
39846;SDS011;25517;52.422;10.782;2023-03-08T00:51:51;22.60;;;10.43;;
39846;SDS011;25517;52.422;10.782;2023-03-08T00:54:17;15.07;;;9.60;;
39846;SDS011;25517;52.422;10.782;2023-03-08T00:56:42;16.20;;;9.38;;
39846;SDS011;25517;52.422;10.782;2023-03-08T00:59:08;16.02;;;8.98;;
39846;SDS011;25517;52.422;10.782;2023-03-08T01:01:33;18.58;;;9.77;;
39846;SDS011;25517;52.422;10.782;2023-03-08T01:04:00;17.27;;;10.70;;
39846;SDS011;25517;52.422;10.782;2023-03-08T01:06:26;19.55;;;10.27;;
39846;SDS011;25517;52.422;10.782;2023-03-08T01:08:51;20.67;;;10.20;;
39846;SDS011;25517;52.422;10.782;2023-03-08T01:11:21;18.15;;;10.75;;
39846;SDS011;25517;52.422;10.782;2023-03-08T01:13:48;19.35;;;11.02;;
39846;SDS011;25517;52.422;10.782;2023-03-08T01:16:19;18.92;;;11.05;;
39846;SDS011;25517;52.422;10.782;2023-03-08T01:18:47;19.80;;;11.60;;
39846;SDS011;25517;52.422;10.782;2023-03-08T01:21:13;23.45;;;11.20;;
39846;SDS011;25517;52.422;10.782;2023-03-08T01:23:39;18.83;;;11.15;;
39846;SDS011;25517;52.422;10.782;2023-03-08T01:26:10;21.55;;;11.90;;
39846;SDS011;25517;52.422;10.782;2023-03-08T01:28:37;23.23;;;12.70;;
39846;SDS011;25517;52.422;10.782;2023-03-08T01:31:06;24.52;;;12.88;;
39846;SDS011;25517;52.422;10.782;2023-03-08T01:33:34;28.20;;;13.50;;
39846;SDS011;25517;52.422;10.782;2023-03-08T01:36:03;22.95;;;12.52;;
39846;SDS011;25517;52.422;10.782;2023-03-08T01:38:30;24.25;;;12.32;;
39846;SDS011;25517;52.422;10.782;2023-03-08T01:40:56;20.98;;;12.82;;
39846;SDS011;25517;52.422;10.782;2023-03-08T01:43:33;23.42;;;12.52;;
39846;SDS011;25517;52.422;10.782;2023-03-08T01:48:43;21.42;;;13.48;;
39846;SDS011;25517;52.422;10.782;2023-03-08T01:51:14;20.02;;;12.25;;
39846;SDS011;25517;52.422;10.782;2023-03-08T01:53:44;19.10;;;11.70;;
39846;SDS011;25517;52.422;10.782;2023-03-08T01:56:10;26.13;;;12.45;;
39846;SDS011;25517;52.422;10.782;2023-03-08T01:58:39;24.83;;;13.38;;
39846;SDS011;25517;52.422;10.782;2023-03-08T02:01:08;22.77;;;12.13;;
39846;SDS011;25517;52.422;10.782;2023-03-08T02:03:34;21.80;;;12.95;;
39846;SDS011;25517;52.422;10.782;2023-03-08T02:06:00;22.27;;;12.15;;
39846;SDS011;25517;52.422;10.782;2023-03-08T02:08:27;20.58;;;12.05;;
39846;SDS011;25517;52.422;10.782;2023-03-08T02:10:52;19.50;;;12.00;;
39846;SDS011;25517;52.422;10.782;2023-03-08T02:13:18;19.23;;;11.20;;
39846;SDS011;25517;52.422;10.782;2023-03-08T02:15:44;25.40;;;12.15;;
39846;SDS011;25517;52.422;10.782;2023-03-08T02:18:10;20.20;;;10.50;;
39846;SDS011;25517;52.422;10.782;2023-03-08T02:20:37;18.90;;;11.38;;
39846;SDS011;25517;52.422;10.782;2023-03-08T02:25:36;19.85;;;12.20;;
39846;SDS011;25517;52.422;10.782;2023-03-08T02:28:02;20.20;;;11.25;;
39846;SDS011;25517;52.422;10.782;2023-03-08T02:30:30;18.92;;;11.43;;
39846;SDS011;25517;52.422;10.782;2023-03-08T02:32:58;18.27;;;10.80;;
39846;SDS011;25517;52.422;10.782;2023-03-08T02:35:24;19.77;;;11.93;;
39846;SDS011;25517;52.422;10.782;2023-03-08T02:37:50;22.20;;;12.07;;
39846;SDS011;25517;52.422;10.782;2023-03-08T02:40:16;18.67;;;11.40;;
39846;SDS011;25517;52.422;10.782;2023-03-08T02:42:41;20.38;;;11.68;;
39846;SDS011;25517;52.422;10.782;2023-03-08T02:45:07;19.67;;;11.30;;
39846;SDS011;25517;52.422;10.782;2023-03-08T02:47:33;20.60;;;11.35;;
39846;SDS011;25517;52.422;10.782;2023-03-08T02:49:59;16.73;;;11.07;;
39846;SDS011;25517;52.422;10.782;2023-03-08T02:52:24;17.92;;;11.07;;
39846;SDS011;25517;52.422;10.782;2023-03-08T02:54:50;21.08;;;10.95;;
39846;SDS011;25517;52.422;10.782;2023-03-08T02:57:17;24.90;;;11.20;;
39846;SDS011;25517;52.422;10.782;2023-03-08T02:59:43;19.58;;;10.82;;
39846;SDS011;25517;52.422;10.782;2023-03-08T03:02:08;18.45;;;11.10;;
39846;SDS011;25517;52.422;10.782;2023-03-08T03:04:34;17.15;;;10.65;;
39846;SDS011;25517;52.422;10.782;2023-03-08T03:07:00;20.15;;;10.68;;
39846;SDS011;25517;52.422;10.782;2023-03-08T03:09:25;15.60;;;9.80;;
39846;SDS011;25517;52.422;10.782;2023-03-08T03:11:51;16.08;;;9.30;;
39846;SDS011;25517;52.422;10.782;2023-03-08T03:14:17;14.77;;;9.20;;
39846;SDS011;25517;52.422;10.782;2023-03-08T03:16:43;12.95;;;8.55;;
39846;SDS011;25517;52.422;10.782;2023-03-08T03:19:08;14.75;;;9.40;;
39846;SDS011;25517;52.422;10.782;2023-03-08T03:21:34;15.40;;;8.38;;
39846;SDS011;25517;52.422;10.782;2023-03-08T03:23:59;18.23;;;8.23;;
39846;SDS011;25517;52.422;10.782;2023-03-08T03:26:25;15.25;;;7.97;;
39846;SDS011;25517;52.422;10.782;2023-03-08T03:29:01;11.82;;;7.80;;
39846;SDS011;25517;52.422;10.782;2023-03-08T03:31:26;17.20;;;7.38;;
39846;SDS011;25517;52.422;10.782;2023-03-08T03:33:52;16.23;;;7.30;;
39846;SDS011;25517;52.422;10.782;2023-03-08T03:36:19;17.00;;;8.95;;
39846;SDS011;25517;52.422;10.782;2023-03-08T03:38:45;9.90;;;7.00;;
39846;SDS011;25517;52.422;10.782;2023-03-08T03:41:13;10.18;;;7.63;;
39846;SDS011;25517;52.422;10.782;2023-03-08T03:43:46;12.82;;;8.10;;
39846;SDS011;25517;52.422;10.782;2023-03-08T03:46:13;13.02;;;8.32;;
39846;SDS011;25517;52.422;10.782;2023-03-08T03:48:41;15.82;;;8.48;;
39846;SDS011;25517;52.422;10.782;2023-03-08T03:51:12;11.45;;;7.88;;
39846;SDS011;25517;52.422;10.782;2023-03-08T03:53:40;14.70;;;8.65;;
39846;SDS011;25517;52.422;10.782;2023-03-08T03:56:07;12.48;;;8.10;;
39846;SDS011;25517;52.422;10.782;2023-03-08T03:58:35;17.52;;;8.20;;
39846;SDS011;25517;52.422;10.782;2023-03-08T04:01:05;12.45;;;8.45;;
39846;SDS011;25517;52.422;10.782;2023-03-08T04:03:35;11.98;;;8.40;;
39846;SDS011;25517;52.422;10.782;2023-03-08T04:06:07;14.95;;;8.95;;
39846;SDS011;25517;52.422;10.782;2023-03-08T04:08:40;14.00;;;9.27;;
39846;SDS011;25517;52.422;10.782;2023-03-08T04:11:10;15.02;;;8.65;;
39846;SDS011;25517;52.422;10.782;2023-03-08T04:13:40;13.23;;;8.40;;
39846;SDS011;25517;52.422;10.782;2023-03-08T04:18:46;11.18;;;7.82;;
39846;SDS011;25517;52.422;10.782;2023-03-08T04:21:12;10.88;;;6.35;;
39846;SDS011;25517;52.422;10.782;2023-03-08T04:23:38;13.18;;;7.43;;
39846;SDS011;25517;52.422;10.782;2023-03-08T04:26:04;15.23;;;7.80;;
39846;SDS011;25517;52.422;10.782;2023-03-08T04:28:31;14.05;;;7.82;;
39846;SDS011;25517;52.422;10.782;2023-03-08T04:30:57;18.13;;;8.73;;
39846;SDS011;25517;52.422;10.782;2023-03-08T04:33:23;14.65;;;8.15;;
39846;SDS011;25517;52.422;10.782;2023-03-08T04:35:49;12.35;;;7.15;;
39846;SDS011;25517;52.422;10.782;2023-03-08T04:38:15;11.02;;;7.45;;
39846;SDS011;25517;52.422;10.782;2023-03-08T04:40:48;12.73;;;8.93;;
39846;SDS011;25517;52.422;10.782;2023-03-08T04:43:29;12.48;;;7.15;;
39846;SDS011;25517;52.422;10.782;2023-03-08T04:45:56;14.15;;;6.95;;
39846;SDS011;25517;52.422;10.782;2023-03-08T04:48:22;18.00;;;8.35;;
39846;SDS011;25517;52.422;10.782;2023-03-08T04:50:51;12.27;;;7.78;;
39846;SDS011;25517;52.422;10.782;2023-03-08T04:53:18;14.05;;;7.72;;
39846;SDS011;25517;52.422;10.782;2023-03-08T04:55:43;12.75;;;7.95;;
39846;SDS011;25517;52.422;10.782;2023-03-08T04:58:09;19.02;;;9.10;;
39846;SDS011;25517;52.422;10.782;2023-03-08T05:00:34;17.02;;;8.35;;
39846;SDS011;25517;52.422;10.782;2023-03-08T05:03:00;13.27;;;8.50;;
39846;SDS011;25517;52.422;10.782;2023-03-08T05:05:25;14.85;;;9.20;;
39846;SDS011;25517;52.422;10.782;2023-03-08T05:07:51;15.77;;;9.48;;
39846;SDS011;25517;52.422;10.782;2023-03-08T05:10:17;14.45;;;9.13;;
39846;SDS011;25517;52.422;10.782;2023-03-08T05:12:42;19.02;;;9.20;;
39846;SDS011;25517;52.422;10.782;2023-03-08T05:15:08;19.20;;;11.43;;
39846;SDS011;25517;52.422;10.782;2023-03-08T05:17:34;15.60;;;8.85;;
39846;SDS011;25517;52.422;10.782;2023-03-08T05:20:00;15.52;;;8.82;;
39846;SDS011;25517;52.422;10.782;2023-03-08T05:22:26;15.02;;;8.52;;
39846;SDS011;25517;52.422;10.782;2023-03-08T05:24:52;13.77;;;8.32;;
39846;SDS011;25517;52.422;10.782;2023-03-08T05:27:17;15.57;;;9.38;;
39846;SDS011;25517;52.422;10.782;2023-03-08T05:29:43;15.43;;;8.52;;
39846;SDS011;25517;52.422;10.782;2023-03-08T05:32:12;15.93;;;9.10;;
39846;SDS011;25517;52.422;10.782;2023-03-08T05:34:37;16.15;;;9.43;;
39846;SDS011;25517;52.422;10.782;2023-03-08T05:37:03;17.42;;;9.63;;
39846;SDS011;25517;52.422;10.782;2023-03-08T05:39:28;23.65;;;9.77;;
39846;SDS011;25517;52.422;10.782;2023-03-08T05:41:54;17.50;;;9.10;;
39846;SDS011;25517;52.422;10.782;2023-03-08T05:44:20;19.42;;;9.85;;
39846;SDS011;25517;52.422;10.782;2023-03-08T05:46:48;19.73;;;9.88;;
39846;SDS011;25517;52.422;10.782;2023-03-08T05:49:14;18.55;;;10.55;;
39846;SDS011;25517;52.422;10.782;2023-03-08T05:51:40;20.13;;;10.05;;
39846;SDS011;25517;52.422;10.782;2023-03-08T05:54:05;19.13;;;9.82;;
39846;SDS011;25517;52.422;10.782;2023-03-08T05:56:31;19.23;;;11.60;;
39846;SDS011;25517;52.422;10.782;2023-03-08T05:58:56;25.42;;;11.75;;
39846;SDS011;25517;52.422;10.782;2023-03-08T06:01:23;21.15;;;11.40;;
39846;SDS011;25517;52.422;10.782;2023-03-08T06:03:50;19.23;;;10.35;;
39846;SDS011;25517;52.422;10.782;2023-03-08T06:06:18;20.30;;;10.23;;
39846;SDS011;25517;52.422;10.782;2023-03-08T06:08:44;20.75;;;10.05;;
39846;SDS011;25517;52.422;10.782;2023-03-08T06:11:10;22.73;;;12.10;;
39846;SDS011;25517;52.422;10.782;2023-03-08T06:13:36;21.92;;;11.07;;
39846;SDS011;25517;52.422;10.782;2023-03-08T06:16:02;19.35;;;10.90;;
39846;SDS011;25517;52.422;10.782;2023-03-08T06:18:29;23.58;;;11.15;;
39846;SDS011;25517;52.422;10.782;2023-03-08T06:21:02;23.23;;;11.60;;
39846;SDS011;25517;52.422;10.782;2023-03-08T06:23:30;18.20;;;10.65;;
39846;SDS011;25517;52.422;10.782;2023-03-08T06:25:57;20.30;;;11.10;;
39846;SDS011;25517;52.422;10.782;2023-03-08T06:28:23;20.10;;;10.35;;
39846;SDS011;25517;52.422;10.782;2023-03-08T06:30:49;22.33;;;10.95;;
39846;SDS011;25517;52.422;10.782;2023-03-08T06:33:15;20.58;;;10.75;;
39846;SDS011;25517;52.422;10.782;2023-03-08T06:35:41;16.85;;;10.18;;
39846;SDS011;25517;52.422;10.782;2023-03-08T06:38:07;21.02;;;12.15;;
39846;SDS011;25517;52.422;10.782;2023-03-08T06:40:33;21.27;;;10.85;;
39846;SDS011;25517;52.422;10.782;2023-03-08T06:42:58;23.65;;;11.30;;
39846;SDS011;25517;52.422;10.782;2023-03-08T06:45:25;22.13;;;10.90;;
39846;SDS011;25517;52.422;10.782;2023-03-08T06:47:51;22.70;;;11.38;;
39846;SDS011;25517;52.422;10.782;2023-03-08T06:50:16;21.67;;;10.85;;
39846;SDS011;25517;52.422;10.782;2023-03-08T06:52:42;23.60;;;11.25;;
39846;SDS011;25517;52.422;10.782;2023-03-08T06:55:08;21.75;;;11.75;;
39846;SDS011;25517;52.422;10.782;2023-03-08T06:57:34;19.83;;;9.68;;
39846;SDS011;25517;52.422;10.782;2023-03-08T06:59:59;20.88;;;10.88;;
39846;SDS011;25517;52.422;10.782;2023-03-08T07:02:25;19.00;;;10.55;;
39846;SDS011;25517;52.422;10.782;2023-03-08T07:04:51;18.20;;;10.75;;
39846;SDS011;25517;52.422;10.782;2023-03-08T07:07:16;20.70;;;11.38;;
39846;SDS011;25517;52.422;10.782;2023-03-08T07:09:42;17.50;;;9.80;;
39846;SDS011;25517;52.422;10.782;2023-03-08T07:12:07;19.60;;;10.23;;
39846;SDS011;25517;52.422;10.782;2023-03-08T07:14:33;21.17;;;11.05;;
39846;SDS011;25517;52.422;10.782;2023-03-08T07:16:58;19.33;;;10.23;;
39846;SDS011;25517;52.422;10.782;2023-03-08T07:19:24;18.70;;;10.40;;
39846;SDS011;25517;52.422;10.782;2023-03-08T07:21:50;24.13;;;11.15;;
39846;SDS011;25517;52.422;10.782;2023-03-08T07:24:15;26.48;;;10.65;;
39846;SDS011;25517;52.422;10.782;2023-03-08T07:26:41;19.02;;;10.25;;
39846;SDS011;25517;52.422;10.782;2023-03-08T07:29:07;19.77;;;10.60;;
39846;SDS011;25517;52.422;10.782;2023-03-08T07:31:32;17.48;;;9.77;;
39846;SDS011;25517;52.422;10.782;2023-03-08T07:34:00;29.33;;;11.23;;
39846;SDS011;25517;52.422;10.782;2023-03-08T07:36:27;16.60;;;9.88;;
39846;SDS011;25517;52.422;10.782;2023-03-08T07:38:52;20.52;;;10.25;;
39846;SDS011;25517;52.422;10.782;2023-03-08T07:41:18;21.15;;;10.80;;
39846;SDS011;25517;52.422;10.782;2023-03-08T07:43:43;20.88;;;10.07;;
39846;SDS011;25517;52.422;10.782;2023-03-08T07:46:09;19.75;;;10.77;;
39846;SDS011;25517;52.422;10.782;2023-03-08T07:48:34;20.80;;;11.32;;
39846;SDS011;25517;52.422;10.782;2023-03-08T07:51:00;15.77;;;9.00;;
39846;SDS011;25517;52.422;10.782;2023-03-08T07:53:34;18.95;;;8.80;;
39846;SDS011;25517;52.422;10.782;2023-03-08T07:56:01;16.05;;;9.63;;
39846;SDS011;25517;52.422;10.782;2023-03-08T07:58:27;20.85;;;10.00;;
39846;SDS011;25517;52.422;10.782;2023-03-08T08:00:53;18.40;;;9.93;;
39846;SDS011;25517;52.422;10.782;2023-03-08T08:03:19;19.05;;;9.68;;
39846;SDS011;25517;52.422;10.782;2023-03-08T08:05:45;15.82;;;8.93;;
39846;SDS011;25517;52.422;10.782;2023-03-08T08:08:10;17.02;;;10.27;;
39846;SDS011;25517;52.422;10.782;2023-03-08T08:10:38;18.08;;;10.50;;
39846;SDS011;25517;52.422;10.782;2023-03-08T08:13:04;18.80;;;10.75;;
39846;SDS011;25517;52.422;10.782;2023-03-08T08:15:30;21.35;;;11.48;;
39846;SDS011;25517;52.422;10.782;2023-03-08T08:17:55;18.08;;;9.82;;
39846;SDS011;25517;52.422;10.782;2023-03-08T08:20:21;20.25;;;11.82;;
39846;SDS011;25517;52.422;10.782;2023-03-08T08:22:46;20.33;;;11.65;;
39846;SDS011;25517;52.422;10.782;2023-03-08T08:25:15;21.88;;;11.95;;
39846;SDS011;25517;52.422;10.782;2023-03-08T08:27:41;19.65;;;11.25;;
39846;SDS011;25517;52.422;10.782;2023-03-08T08:30:07;20.13;;;12.50;;
39846;SDS011;25517;52.422;10.782;2023-03-08T08:32:33;20.15;;;11.98;;
39846;SDS011;25517;52.422;10.782;2023-03-08T08:34:59;23.38;;;13.23;;
39846;SDS011;25517;52.422;10.782;2023-03-08T08:37:24;21.15;;;12.20;;
39846;SDS011;25517;52.422;10.782;2023-03-08T08:39:50;19.98;;;11.82;;
39846;SDS011;25517;52.422;10.782;2023-03-08T08:42:15;16.65;;;11.90;;
39846;SDS011;25517;52.422;10.782;2023-03-08T08:44:41;21.55;;;12.23;;
39846;SDS011;25517;52.422;10.782;2023-03-08T08:47:06;22.60;;;12.27;;
39846;SDS011;25517;52.422;10.782;2023-03-08T08:49:32;22.80;;;12.75;;
39846;SDS011;25517;52.422;10.782;2023-03-08T08:51:58;20.92;;;12.65;;
39846;SDS011;25517;52.422;10.782;2023-03-08T08:54:23;21.60;;;12.02;;
39846;SDS011;25517;52.422;10.782;2023-03-08T08:56:49;21.95;;;11.77;;
39846;SDS011;25517;52.422;10.782;2023-03-08T08:59:15;21.33;;;12.00;;
39846;SDS011;25517;52.422;10.782;2023-03-08T09:01:40;18.73;;;11.63;;
39846;SDS011;25517;52.422;10.782;2023-03-08T09:04:11;22.08;;;11.93;;
39846;SDS011;25517;52.422;10.782;2023-03-08T09:06:38;19.40;;;10.23;;
39846;SDS011;25517;52.422;10.782;2023-03-08T09:09:04;17.20;;;10.10;;
39846;SDS011;25517;52.422;10.782;2023-03-08T09:11:30;15.13;;;9.63;;
39846;SDS011;25517;52.422;10.782;2023-03-08T09:13:56;13.85;;;7.93;;
39846;SDS011;25517;52.422;10.782;2023-03-08T09:16:23;13.98;;;8.02;;
39846;SDS011;25517;52.422;10.782;2023-03-08T09:18:50;9.32;;;6.10;;
39846;SDS011;25517;52.422;10.782;2023-03-08T09:21:17;9.43;;;6.93;;
39846;SDS011;25517;52.422;10.782;2023-03-08T09:23:43;11.18;;;7.00;;
39846;SDS011;25517;52.422;10.782;2023-03-08T09:26:09;13.20;;;6.47;;
39846;SDS011;25517;52.422;10.782;2023-03-08T09:28:35;12.57;;;7.07;;
39846;SDS011;25517;52.422;10.782;2023-03-08T09:31:04;13.52;;;8.38;;
39846;SDS011;25517;52.422;10.782;2023-03-08T09:33:37;12.75;;;7.43;;
39846;SDS011;25517;52.422;10.782;2023-03-08T09:36:04;14.70;;;7.97;;
39846;SDS011;25517;52.422;10.782;2023-03-08T09:38:29;15.40;;;7.30;;
39846;SDS011;25517;52.422;10.782;2023-03-08T09:41:22;11.93;;;7.25;;
39846;SDS011;25517;52.422;10.782;2023-03-08T09:43:56;16.08;;;7.63;;
39846;SDS011;25517;52.422;10.782;2023-03-08T09:46:29;14.85;;;7.78;;
39846;SDS011;25517;52.422;10.782;2023-03-08T09:48:59;14.60;;;8.32;;
39846;SDS011;25517;52.422;10.782;2023-03-08T09:51:30;14.85;;;8.48;;
39846;SDS011;25517;52.422;10.782;2023-03-08T09:54:01;17.90;;;10.07;;
39846;SDS011;25517;52.422;10.782;2023-03-08T09:56:32;16.23;;;9.88;;
39846;SDS011;25517;52.422;10.782;2023-03-08T10:04:48;18.63;;;9.48;;
39846;SDS011;25517;52.422;10.782;2023-03-08T10:09:57;19.75;;;8.88;;
39846;SDS011;25517;52.422;10.782;2023-03-08T10:15:22;17.35;;;9.48;;
39846;SDS011;25517;52.422;10.782;2023-03-08T10:17:54;19.55;;;9.90;;
39846;SDS011;25517;52.422;10.782;2023-03-08T10:20:24;15.75;;;9.90;;
39846;SDS011;25517;52.422;10.782;2023-03-08T10:25:40;15.55;;;8.98;;
39846;SDS011;25517;52.422;10.782;2023-03-08T10:28:13;18.98;;;9.73;;
39846;SDS011;25517;52.422;10.782;2023-03-08T10:30:51;14.95;;;8.85;;
39846;SDS011;25517;52.422;10.782;2023-03-08T10:33:20;15.20;;;8.80;;
39846;SDS011;25517;52.422;10.782;2023-03-08T10:38:27;16.20;;;9.93;;
39846;SDS011;25517;52.422;10.782;2023-03-08T10:41:13;14.63;;;9.27;;
39846;SDS011;25517;52.422;10.782;2023-03-08T10:43:50;14.75;;;9.60;;
39846;SDS011;25517;52.422;10.782;2023-03-08T10:46:19;18.02;;;10.27;;
39846;SDS011;25517;52.422;10.782;2023-03-08T10:48:46;17.45;;;9.82;;
39846;SDS011;25517;52.422;10.782;2023-03-08T10:51:16;14.60;;;8.90;;
39846;SDS011;25517;52.422;10.782;2023-03-08T10:53:59;13.80;;;8.18;;
39846;SDS011;25517;52.422;10.782;2023-03-08T10:59:17;16.23;;;8.23;;
39846;SDS011;25517;52.422;10.782;2023-03-08T11:01:54;17.52;;;8.90;;
39846;SDS011;25517;52.422;10.782;2023-03-08T11:04:23;14.65;;;8.55;;
39846;SDS011;25517;52.422;10.782;2023-03-08T11:06:50;13.70;;;8.73;;
39846;SDS011;25517;52.422;10.782;2023-03-08T11:11:55;13.20;;;8.38;;
39846;SDS011;25517;52.422;10.782;2023-03-08T11:14:22;16.40;;;9.13;;
39846;SDS011;25517;52.422;10.782;2023-03-08T11:16:50;15.38;;;8.73;;
39846;SDS011;25517;52.422;10.782;2023-03-08T11:19:32;19.25;;;10.00;;
39846;SDS011;25517;52.422;10.782;2023-03-08T11:22:02;22.17;;;10.85;;
39846;SDS011;25517;52.422;10.782;2023-03-08T11:24:55;16.17;;;10.00;;
39846;SDS011;25517;52.422;10.782;2023-03-08T11:27:59;16.05;;;10.00;;
39846;SDS011;25517;52.422;10.782;2023-03-08T11:30:37;15.07;;;9.80;;
39846;SDS011;25517;52.422;10.782;2023-03-08T11:36:01;17.85;;;10.35;;
39846;SDS011;25517;52.422;10.782;2023-03-08T11:38:47;18.98;;;9.82;;
39846;SDS011;25517;52.422;10.782;2023-03-08T11:41:33;18.00;;;11.35;;
39846;SDS011;25517;52.422;10.782;2023-03-08T11:55:42;16.05;;;10.23;;
39846;SDS011;25517;52.422;10.782;2023-03-08T12:00:42;16.02;;;10.85;;
39846;SDS011;25517;52.422;10.782;2023-03-08T12:03:13;21.63;;;10.30;;
39846;SDS011;25517;52.422;10.782;2023-03-08T12:05:47;17.13;;;10.35;;
39846;SDS011;25517;52.422;10.782;2023-03-08T12:08:23;13.60;;;8.93;;
39846;SDS011;25517;52.422;10.782;2023-03-08T12:10:54;13.35;;;8.10;;
39846;SDS011;25517;52.422;10.782;2023-03-08T12:15:58;12.15;;;6.43;;
39846;SDS011;25517;52.422;10.782;2023-03-08T12:18:35;10.55;;;6.38;;
39846;SDS011;25517;52.422;10.782;2023-03-08T12:21:10;6.57;;;2.88;;
39846;SDS011;25517;52.422;10.782;2023-03-08T12:26:48;5.72;;;2.08;;
39846;SDS011;25517;52.422;10.782;2023-03-08T12:29:22;6.53;;;3.00;;
39846;SDS011;25517;52.422;10.782;2023-03-08T12:31:53;8.20;;;4.45;;
39846;SDS011;25517;52.422;10.782;2023-03-08T12:34:29;7.28;;;4.93;;
39846;SDS011;25517;52.422;10.782;2023-03-08T12:37:00;9.73;;;5.60;;
39846;SDS011;25517;52.422;10.782;2023-03-08T12:39:35;15.98;;;6.65;;
39846;SDS011;25517;52.422;10.782;2023-03-08T12:42:12;14.57;;;6.47;;
39846;SDS011;25517;52.422;10.782;2023-03-08T12:44:39;7.88;;;5.38;;
39846;SDS011;25517;52.422;10.782;2023-03-08T12:49:39;12.57;;;6.60;;
39846;SDS011;25517;52.422;10.782;2023-03-08T12:54:54;10.23;;;5.78;;
39846;SDS011;25517;52.422;10.782;2023-03-08T12:57:23;7.85;;;4.70;;
39846;SDS011;25517;52.422;10.782;2023-03-08T12:59:57;8.37;;;5.00;;
39846;SDS011;25517;52.422;10.782;2023-03-08T13:13:18;12.05;;;6.90;;
39846;SDS011;25517;52.422;10.782;2023-03-08T13:18:43;11.27;;;6.75;;
39846;SDS011;25517;52.422;10.782;2023-03-08T13:23:50;12.30;;;6.88;;
39846;SDS011;25517;52.422;10.782;2023-03-08T13:29:28;10.55;;;7.05;;
39846;SDS011;25517;52.422;10.782;2023-03-08T13:31:55;11.98;;;7.28;;
39846;SDS011;25517;52.422;10.782;2023-03-08T13:36:54;13.20;;;7.43;;
39846;SDS011;25517;52.422;10.782;2023-03-08T13:39:23;11.52;;;6.38;;
39846;SDS011;25517;52.422;10.782;2023-03-08T13:41:50;10.20;;;5.65;;
39846;SDS011;25517;52.422;10.782;2023-03-08T13:44:21;8.35;;;5.07;;
39846;SDS011;25517;52.422;10.782;2023-03-08T13:46:51;10.45;;;5.32;;
39846;SDS011;25517;52.422;10.782;2023-03-08T13:49:30;6.85;;;4.60;;
39846;SDS011;25517;52.422;10.782;2023-03-08T13:51:59;5.57;;;3.40;;
39846;SDS011;25517;52.422;10.782;2023-03-08T13:54:32;9.93;;;4.55;;
39846;SDS011;25517;52.422;10.782;2023-03-08T13:57:02;7.53;;;4.50;;
39846;SDS011;25517;52.422;10.782;2023-03-08T13:59:46;9.50;;;5.25;;
39846;SDS011;25517;52.422;10.782;2023-03-08T14:02:46;10.43;;;4.88;;
39846;SDS011;25517;52.422;10.782;2023-03-08T14:05:19;8.95;;;5.65;;
39846;SDS011;25517;52.422;10.782;2023-03-08T14:08:06;8.70;;;6.18;;
39846;SDS011;25517;52.422;10.782;2023-03-08T14:10:43;14.57;;;7.38;;
39846;SDS011;25517;52.422;10.782;2023-03-08T14:13:14;9.85;;;5.65;;
39846;SDS011;25517;52.422;10.782;2023-03-08T14:15:48;14.55;;;6.78;;
39846;SDS011;25517;52.422;10.782;2023-03-08T14:18:23;11.02;;;6.55;;
39846;SDS011;25517;52.422;10.782;2023-03-08T14:23:46;11.88;;;7.47;;
39846;SDS011;25517;52.422;10.782;2023-03-08T14:29:10;14.00;;;7.43;;
39846;SDS011;25517;52.422;10.782;2023-03-08T14:31:38;12.38;;;7.38;;
39846;SDS011;25517;52.422;10.782;2023-03-08T14:34:20;13.82;;;7.82;;
39846;SDS011;25517;52.422;10.782;2023-03-08T14:36:57;13.43;;;8.45;;
39846;SDS011;25517;52.422;10.782;2023-03-08T14:39:27;17.70;;;9.00;;
39846;SDS011;25517;52.422;10.782;2023-03-08T14:41:54;17.80;;;9.98;;
39846;SDS011;25517;52.422;10.782;2023-03-08T14:44:21;15.98;;;9.52;;
39846;SDS011;25517;52.422;10.782;2023-03-08T14:46:50;12.07;;;8.90;;
39846;SDS011;25517;52.422;10.782;2023-03-08T14:49:22;18.02;;;9.98;;
39846;SDS011;25517;52.422;10.782;2023-03-08T14:51:52;14.82;;;8.90;;
39846;SDS011;25517;52.422;10.782;2023-03-08T14:54:20;16.15;;;9.18;;
39846;SDS011;25517;52.422;10.782;2023-03-08T14:56:56;14.90;;;8.63;;
39846;SDS011;25517;52.422;10.782;2023-03-08T14:59:23;13.40;;;8.45;;
39846;SDS011;25517;52.422;10.782;2023-03-08T15:01:49;15.60;;;9.00;;
39846;SDS011;25517;52.422;10.782;2023-03-08T15:04:20;12.32;;;8.02;;
39846;SDS011;25517;52.422;10.782;2023-03-08T15:06:47;15.30;;;9.02;;
39846;SDS011;25517;52.422;10.782;2023-03-08T15:09:15;17.45;;;9.02;;
39846;SDS011;25517;52.422;10.782;2023-03-08T15:11:43;13.93;;;8.63;;
39846;SDS011;25517;52.422;10.782;2023-03-08T15:14:10;13.32;;;8.57;;
39846;SDS011;25517;52.422;10.782;2023-03-08T15:16:36;16.00;;;9.93;;
39846;SDS011;25517;52.422;10.782;2023-03-08T15:19:02;19.00;;;10.45;;
39846;SDS011;25517;52.422;10.782;2023-03-08T15:21:28;18.83;;;10.23;;
39846;SDS011;25517;52.422;10.782;2023-03-08T15:23:54;22.55;;;10.27;;
39846;SDS011;25517;52.422;10.782;2023-03-08T15:26:24;16.92;;;10.50;;
39846;SDS011;25517;52.422;10.782;2023-03-08T15:28:52;18.38;;;10.70;;
39846;SDS011;25517;52.422;10.782;2023-03-08T15:31:18;21.48;;;11.85;;
39846;SDS011;25517;52.422;10.782;2023-03-08T15:33:43;23.60;;;11.90;;
39846;SDS011;25517;52.422;10.782;2023-03-08T15:36:11;17.70;;;10.38;;
39846;SDS011;25517;52.422;10.782;2023-03-08T15:38:38;17.95;;;10.43;;
39846;SDS011;25517;52.422;10.782;2023-03-08T15:41:04;18.27;;;10.20;;
39846;SDS011;25517;52.422;10.782;2023-03-08T15:43:30;17.13;;;10.15;;
39846;SDS011;25517;52.422;10.782;2023-03-08T15:45:57;19.17;;;10.73;;
39846;SDS011;25517;52.422;10.782;2023-03-08T15:48:23;16.67;;;9.20;;